createdAt,value
2023-04-10T00:01:25.120Z,7.95
2023-04-10T00:03:54.372Z,7.91
2023-04-10T00:06:23.758Z,7.89
2023-04-10T00:08:52.707Z,7.88
2023-04-10T00:11:23.373Z,7.85
2023-04-10T00:13:52.768Z,7.83
2023-04-10T00:16:22.162Z,7.77
2023-04-10T00:18:51.203Z,7.75
2023-04-10T00:21:20.297Z,7.67
2023-04-10T00:23:49.242Z,7.67
2023-04-10T00:26:18.317Z,7.66
2023-04-10T00:28:48.992Z,7.62
2023-04-10T00:31:18.094Z,7.65
2023-04-10T00:33:50.234Z,7.61
2023-04-10T00:36:20.182Z,7.59
2023-04-10T00:38:49.987Z,7.73
2023-04-10T00:41:19.138Z,7.64
2023-04-10T00:43:49.607Z,7.64
2023-04-10T00:46:18.962Z,7.67
2023-04-10T00:48:48.372Z,7.74
2023-04-10T00:51:19.528Z,7.71
2023-04-10T00:53:51.737Z,7.64
2023-04-10T00:56:21.297Z,7.70
2023-04-10T00:58:52.014Z,7.68
2023-04-10T01:01:21.176Z,7.75
2023-04-10T01:03:50.547Z,7.75
2023-04-10T01:06:28.443Z,7.72
2023-04-10T01:09:06.178Z,7.75
2023-04-10T01:11:46.607Z,7.81
2023-04-10T01:14:24.844Z,7.85
2023-04-10T01:16:59.762Z,7.90
2023-04-10T01:19:53.878Z,7.90
2023-04-10T01:22:27.916Z,7.81
2023-04-10T01:25:14.439Z,7.73
2023-04-10T01:27:54.805Z,7.71
2023-04-10T01:30:26.700Z,7.64
2023-04-10T01:33:00.783Z,7.65
2023-04-10T01:35:31.872Z,7.69
2023-04-10T01:38:03.661Z,7.66
2023-04-10T01:40:34.397Z,7.68
2023-04-10T01:43:07.760Z,7.64
2023-04-10T01:45:49.705Z,7.65
2023-04-10T01:48:19.731Z,7.52
2023-04-10T01:50:50.229Z,7.58
2023-04-10T01:53:20.044Z,7.56
2023-04-10T01:55:50.611Z,7.63
2023-04-10T01:58:20.185Z,7.67
2023-04-10T02:00:50.889Z,7.59
2023-04-10T02:03:20.481Z,7.67
2023-04-10T02:05:58.541Z,7.70
2023-04-10T02:08:33.813Z,7.64
2023-04-10T02:11:14.886Z,7.63
2023-04-10T02:13:44.463Z,7.62
2023-04-10T02:16:17.818Z,7.52
2023-04-10T02:18:49.266Z,7.52
2023-04-10T02:21:18.852Z,7.44
2023-04-10T02:23:48.152Z,7.40
2023-04-10T02:26:17.716Z,7.45
2023-04-10T02:28:46.706Z,7.41
2023-04-10T02:31:17.289Z,7.40
2023-04-10T02:33:46.668Z,7.33
2023-04-10T02:36:15.870Z,7.30
2023-04-10T02:38:44.921Z,7.31
2023-04-10T02:41:15.360Z,7.23
2023-04-10T02:43:44.398Z,7.17
2023-04-10T02:46:13.588Z,7.12
2023-04-10T02:48:44.148Z,7.03
2023-04-10T02:51:14.372Z,6.99
2023-04-10T02:53:43.651Z,6.86
2023-04-10T02:56:19.319Z,6.86
2023-04-10T02:58:48.421Z,6.83
2023-04-10T03:01:17.619Z,6.77
2023-04-10T03:03:51.959Z,6.67
2023-04-10T03:06:31.545Z,6.63
2023-04-10T03:09:01.105Z,6.53
2023-04-10T03:11:30.825Z,6.46
2023-04-10T03:13:59.991Z,6.47
2023-04-10T03:16:29.126Z,6.45
2023-04-10T03:18:59.966Z,6.43
2023-04-10T03:21:29.093Z,6.46
2023-04-10T03:23:58.115Z,6.38
2023-04-10T03:26:28.075Z,6.36
2023-04-10T03:28:57.175Z,6.34
2023-04-10T03:31:26.191Z,6.35
2023-04-10T03:34:00.222Z,6.36
2023-04-10T03:36:29.416Z,6.32
2023-04-10T03:38:58.425Z,6.37
2023-04-10T03:41:27.573Z,6.34
2023-04-10T03:43:57.072Z,6.28
2023-04-10T03:46:26.820Z,6.25
2023-04-10T03:48:56.770Z,6.24
2023-04-10T03:51:27.687Z,6.18
2023-04-10T03:53:56.958Z,6.20
2023-04-10T03:56:26.779Z,6.21
2023-04-10T03:58:55.892Z,6.18
2023-04-10T04:01:25.275Z,6.11
2023-04-10T04:04:08.620Z,6.04
2023-04-10T04:07:09.284Z,5.91
2023-04-10T04:09:56.860Z,5.84
2023-04-10T04:12:44.760Z,5.75
2023-04-10T04:15:45.905Z,5.75
2023-04-10T04:18:33.341Z,5.76
2023-04-10T04:21:37.879Z,5.79
2023-04-10T04:24:22.310Z,5.80
2023-04-10T04:27:17.480Z,5.81
2023-04-10T04:30:13.392Z,5.84
2023-04-10T04:33:11.848Z,5.90
2023-04-10T04:35:59.909Z,5.89
2023-04-10T04:38:59.023Z,5.96
2023-04-10T04:41:57.206Z,6.01
2023-04-10T04:44:44.473Z,6.01
2023-04-10T04:47:46.274Z,6.05
2023-04-10T04:50:45.621Z,6.05
2023-04-10T04:56:33.653Z,6.28
2023-04-10T04:59:30.246Z,6.27
2023-04-10T05:02:08.362Z,6.42
2023-04-10T05:08:39.707Z,6.60
2023-04-10T05:11:26.877Z,6.59
2023-04-10T05:26:30.837Z,7.05
2023-04-10T05:29:18.420Z,7.04
2023-04-10T05:32:10.076Z,7.01
2023-04-10T05:34:45.043Z,7.06
2023-04-10T05:37:22.392Z,7.06
2023-04-10T05:40:03.832Z,7.13
2023-04-10T05:42:42.127Z,7.17
2023-04-10T05:45:40.842Z,7.17
2023-04-10T05:48:26.339Z,7.26
2023-04-10T05:51:21.711Z,7.37
2023-04-10T05:54:16.033Z,7.44
2023-04-10T05:57:05.229Z,7.60
2023-04-10T05:59:34.316Z,7.71
2023-04-10T06:02:22.053Z,7.86
2023-04-10T06:04:53.570Z,8.06
2023-04-10T06:07:22.920Z,8.21
2023-04-10T06:09:52.464Z,8.30
2023-04-10T06:12:23.026Z,8.43
2023-04-10T06:14:52.148Z,8.60
2023-04-10T06:17:26.022Z,8.68
2023-04-10T06:20:01.273Z,8.86
2023-04-10T06:22:31.277Z,9.13
2023-04-10T06:25:00.594Z,9.34
2023-04-10T06:27:31.159Z,9.68
2023-04-10T06:30:00.320Z,9.87
2023-04-10T06:32:29.334Z,10.09
2023-04-10T06:34:58.938Z,10.22
2023-04-10T06:37:32.995Z,10.33
2023-04-10T06:40:07.522Z,10.68
2023-04-10T06:42:38.884Z,10.85
2023-04-10T06:45:37.365Z,11.15
2023-04-10T06:48:06.978Z,11.18
2023-04-10T06:50:36.495Z,11.45
2023-04-10T06:53:05.848Z,11.47
2023-04-10T06:55:35.016Z,11.27
2023-04-10T06:58:05.489Z,11.15
2023-04-10T07:00:34.670Z,11.10
2023-04-10T07:03:03.774Z,11.17
2023-04-10T07:05:32.891Z,11.35
2023-04-10T07:08:02.098Z,11.33
2023-04-10T07:10:31.239Z,11.31
2023-04-10T07:13:00.537Z,11.18
2023-04-10T07:15:31.026Z,10.93
2023-04-10T07:18:00.251Z,10.96
2023-04-10T07:20:29.501Z,10.87
2023-04-10T07:22:58.862Z,10.79
2023-04-10T07:25:27.910Z,10.75
2023-04-10T07:27:57.101Z,10.67
2023-04-10T07:30:26.460Z,10.68
2023-04-10T07:32:57.791Z,10.82
2023-04-10T07:35:27.434Z,11.03
2023-04-10T07:37:56.548Z,11.25
2023-04-10T07:40:25.754Z,11.31
2023-04-10T07:42:54.879Z,11.42
2023-04-10T07:45:23.864Z,11.44
2023-04-10T07:47:52.970Z,11.37
2023-04-10T07:50:23.523Z,11.40
2023-04-10T07:52:52.748Z,11.24
2023-04-10T07:55:22.177Z,11.15
2023-04-10T07:57:52.548Z,11.06
2023-04-10T08:00:21.906Z,11.09
2023-04-10T08:02:50.981Z,11.03
2023-04-10T08:05:20.466Z,10.83
2023-04-10T08:07:51.009Z,10.89
2023-04-10T08:10:20.178Z,10.80
2023-04-10T08:12:49.284Z,10.85
2023-04-10T08:15:19.430Z,11.06
2023-04-10T08:17:48.513Z,11.16
2023-04-10T08:20:17.658Z,11.24
2023-04-10T08:22:46.790Z,11.08
2023-04-10T08:25:17.220Z,11.00
2023-04-10T08:27:46.397Z,11.12
2023-04-10T08:30:15.642Z,11.17
2023-04-10T08:32:44.754Z,11.10
2023-04-10T08:35:13.868Z,11.17
2023-04-10T08:37:46.238Z,11.12
2023-04-10T08:40:20.449Z,11.16
2023-04-10T08:42:49.662Z,11.11
2023-04-10T08:45:18.679Z,11.05
2023-04-10T08:47:52.747Z,10.93
2023-04-10T08:50:22.468Z,10.89
2023-04-10T08:52:54.245Z,10.78
2023-04-10T08:55:25.806Z,10.75
2023-04-10T08:58:00.901Z,10.67
2023-04-10T09:00:34.698Z,10.73
2023-04-10T09:03:05.436Z,10.72
2023-04-10T09:05:35.205Z,10.81
2023-04-10T09:08:04.549Z,10.73
2023-04-10T09:10:35.119Z,10.69
2023-04-10T09:13:04.305Z,10.57
2023-04-10T09:15:55.092Z,10.43
2023-04-10T09:18:24.231Z,10.59
2023-04-10T09:20:53.297Z,10.48
2023-04-10T09:23:23.128Z,10.60
2023-04-10T09:25:53.665Z,10.72
2023-04-10T09:28:22.841Z,10.95
2023-04-10T09:30:51.992Z,11.12
2023-04-10T09:33:25.336Z,11.26
2023-04-10T09:35:54.622Z,11.32
2023-04-10T09:38:23.742Z,11.36
2023-04-10T09:40:54.905Z,11.46
2023-04-10T09:43:25.761Z,11.45
2023-04-10T09:45:56.616Z,11.36
2023-04-10T09:48:27.190Z,11.38
2023-04-10T09:50:56.952Z,11.39
2023-04-10T09:53:26.156Z,11.28
2023-04-10T09:55:58.340Z,11.06
2023-04-10T09:58:28.398Z,10.78
2023-04-10T10:00:58.285Z,10.73
2023-04-10T10:03:27.846Z,10.77
2023-04-10T10:05:57.072Z,10.67
2023-04-10T10:08:28.211Z,10.61
2023-04-10T10:11:02.054Z,10.31
2023-04-10T10:13:37.552Z,10.51
2023-04-10T10:16:14.561Z,10.40
2023-04-10T10:18:47.284Z,10.41
2023-04-10T10:21:17.951Z,10.29
2023-04-10T10:23:54.041Z,10.13
2023-04-10T10:26:25.622Z,9.93
2023-04-10T10:28:56.505Z,9.92
2023-04-10T10:31:31.534Z,9.89
2023-04-10T10:34:05.043Z,10.07
2023-04-10T10:36:34.224Z,10.09
2023-04-10T10:39:28.589Z,10.15
2023-04-10T10:42:05.210Z,10.25
2023-04-10T10:44:42.912Z,10.45
2023-04-10T10:47:19.422Z,10.70
2023-04-10T10:49:59.327Z,10.88
2023-04-10T10:52:42.359Z,11.02
2023-04-10T10:55:35.186Z,11.42
2023-04-10T10:58:08.090Z,11.66
2023-04-10T11:01:20.541Z,11.42
2023-04-10T11:03:50.330Z,11.57
2023-04-10T11:06:20.398Z,11.69
2023-04-10T11:08:53.365Z,11.62
2023-04-10T11:11:24.453Z,11.85
2023-04-10T11:14:21.696Z,11.96
2023-04-10T11:16:50.930Z,11.95
2023-04-10T11:19:25.745Z,11.91
2023-04-10T11:22:08.775Z,11.87
2023-04-10T11:24:54.568Z,11.60
2023-04-10T11:27:48.918Z,11.41
2023-04-10T11:30:34.603Z,11.33
2023-04-10T11:33:05.802Z,11.27
2023-04-10T11:35:35.383Z,11.41
2023-04-10T11:38:15.756Z,11.54
2023-04-10T11:41:02.462Z,11.80
2023-04-10T11:43:32.466Z,12.24
2023-04-10T11:46:05.182Z,11.99
2023-04-10T11:48:34.903Z,11.99
2023-04-10T11:51:11.538Z,11.85
2023-04-10T11:53:41.250Z,11.91
2023-04-10T11:56:17.990Z,11.96
2023-04-10T11:58:47.284Z,12.20
2023-04-10T12:01:17.868Z,12.82
2023-04-10T12:03:47.420Z,13.64
2023-04-10T12:06:17.223Z,14.29
2023-04-10T12:08:47.837Z,14.43
2023-04-10T12:11:20.638Z,14.43
2023-04-10T12:13:50.096Z,14.24
2023-04-10T12:16:22.844Z,13.98
2023-04-10T12:18:53.071Z,13.68
2023-04-10T12:21:22.570Z,13.55
2023-04-10T12:23:52.374Z,13.41
2023-04-10T12:26:22.594Z,13.36
2023-04-10T12:28:55.015Z,13.15
2023-04-10T12:31:40.744Z,12.94
2023-04-10T12:34:11.396Z,12.86
2023-04-10T12:36:40.614Z,12.87
2023-04-10T12:39:24.387Z,12.92
2023-04-10T12:41:53.572Z,12.96
2023-04-10T12:44:23.247Z,13.00
2023-04-10T12:47:02.206Z,13.04
2023-04-10T12:49:31.388Z,13.28
2023-04-10T12:52:00.645Z,13.36
2023-04-10T12:54:31.706Z,13.38
2023-04-10T12:57:01.671Z,13.32
2023-04-10T12:59:31.823Z,13.01
2023-04-10T13:02:02.604Z,12.83
2023-04-10T13:04:33.151Z,12.83
2023-04-10T13:07:02.647Z,12.76
2023-04-10T13:09:31.809Z,12.64
2023-04-10T13:12:01.942Z,12.55
2023-04-10T13:14:31.681Z,12.41
2023-04-10T13:17:02.316Z,12.27
2023-04-10T13:19:31.586Z,11.94
2023-04-10T13:22:01.591Z,11.27
2023-04-10T13:24:30.660Z,11.01
2023-04-10T13:26:59.707Z,10.76
2023-04-10T13:29:29.220Z,10.29
2023-04-10T13:32:00.487Z,10.41
2023-04-10T13:34:31.020Z,10.33
2023-04-10T13:37:00.231Z,10.55
2023-04-10T13:39:31.557Z,10.81
2023-04-10T13:42:02.383Z,11.06
2023-04-10T13:44:31.533Z,11.26
2023-04-10T13:47:00.685Z,11.33
2023-04-10T13:49:31.726Z,11.31
2023-04-10T13:52:00.918Z,11.57
2023-04-10T13:54:30.008Z,11.29
2023-04-10T13:56:59.588Z,11.58
2023-04-10T13:59:28.692Z,11.59
2023-04-10T14:01:57.799Z,11.77
2023-04-10T14:04:26.970Z,11.74
2023-04-10T14:07:00.709Z,11.73
2023-04-10T14:09:29.838Z,11.76
2023-04-10T14:11:59.366Z,11.77
2023-04-10T14:14:28.549Z,11.81
2023-04-10T14:16:57.891Z,11.72
2023-04-10T14:19:27.060Z,11.75
2023-04-10T14:21:57.660Z,11.62
2023-04-10T14:24:26.899Z,11.60
2023-04-10T14:26:58.561Z,11.66
2023-04-10T14:29:37.271Z,11.64
2023-04-10T14:32:09.998Z,11.68
2023-04-10T14:34:39.160Z,11.58
2023-04-10T14:37:09.964Z,11.67
2023-04-10T14:39:39.462Z,11.75
2023-04-10T14:42:08.475Z,11.89
2023-04-10T14:44:37.550Z,11.70
2023-04-10T14:47:06.792Z,11.61
2023-04-10T14:49:38.648Z,11.57
2023-04-10T14:52:09.309Z,11.49
2023-04-10T14:54:38.381Z,11.42
2023-04-10T14:57:07.472Z,11.32
2023-04-10T14:59:36.652Z,11.21
2023-04-10T15:02:05.897Z,11.21
2023-04-10T15:04:35.169Z,11.20
2023-04-10T15:07:04.725Z,11.20
2023-04-10T15:09:35.580Z,11.21
2023-04-10T15:12:04.693Z,11.21
2023-04-10T15:14:33.710Z,11.14
2023-04-10T15:17:02.814Z,11.20
2023-04-10T15:19:31.964Z,11.25
2023-04-10T15:22:01.123Z,11.37
2023-04-10T15:24:32.478Z,11.36
2023-04-10T15:27:08.067Z,11.28
2023-04-10T15:29:40.424Z,11.33
2023-04-10T15:32:09.606Z,11.33
2023-04-10T15:34:38.841Z,11.40
2023-04-10T15:37:08.011Z,11.32
2023-04-10T15:39:37.410Z,11.42
2023-04-10T15:42:08.816Z,11.53
2023-04-10T15:44:37.992Z,11.55
2023-04-10T15:47:07.077Z,11.53
2023-04-10T15:49:38.480Z,11.61
2023-04-10T15:52:08.683Z,11.64
2023-04-10T15:54:37.903Z,11.47
2023-04-10T15:57:08.549Z,11.56
2023-04-10T15:59:38.975Z,11.50
2023-04-10T16:02:08.244Z,11.43
2023-04-10T16:04:37.857Z,11.16
2023-04-10T16:07:07.080Z,11.09
2023-04-10T16:09:36.300Z,10.81
2023-04-10T16:12:05.744Z,10.89
2023-04-10T16:14:36.271Z,10.88
2023-04-10T16:17:10.576Z,10.74
2023-04-10T16:19:40.058Z,10.96
2023-04-10T16:22:09.144Z,11.02
2023-04-10T16:24:38.276Z,11.02
2023-04-10T16:27:08.614Z,11.03
2023-04-10T16:29:39.286Z,10.96
2023-04-10T16:32:08.410Z,10.89
2023-04-10T16:34:37.570Z,10.96
2023-04-10T16:37:06.774Z,10.97
2023-04-10T16:39:36.083Z,10.93
2023-04-10T16:42:05.293Z,10.89
2023-04-10T16:44:34.575Z,10.85
2023-04-10T16:47:05.181Z,10.78
2023-04-10T16:49:34.559Z,10.77
2023-04-10T16:52:03.802Z,10.82
2023-04-10T16:54:33.105Z,10.78
2023-04-10T16:57:02.501Z,10.73
2023-04-10T16:59:31.648Z,10.71
2023-04-10T17:02:01.288Z,10.67
2023-04-10T17:04:34.928Z,10.59
2023-04-10T17:07:04.007Z,10.57
2023-04-10T17:09:33.426Z,10.61
2023-04-10T17:12:02.660Z,10.54
2023-04-10T17:14:31.790Z,10.53
2023-04-10T17:17:01.155Z,10.46
2023-04-10T17:19:31.979Z,10.46
2023-04-10T17:22:01.102Z,9.98
2023-04-10T17:24:31.670Z,10.15
2023-04-10T17:27:02.294Z,10.10
2023-04-10T17:29:31.396Z,10.03
2023-04-10T17:32:00.762Z,9.95
2023-04-10T17:34:29.983Z,9.72
2023-04-10T17:37:01.432Z,9.54
2023-04-10T17:39:30.978Z,9.47
2023-04-10T17:42:00.237Z,9.26
2023-04-10T17:44:29.792Z,9.14
2023-04-10T17:46:59.118Z,8.93
2023-04-10T17:49:31.917Z,8.86
2023-04-10T17:52:02.487Z,8.78
2023-04-10T17:54:31.582Z,8.77
2023-04-10T17:57:01.884Z,8.70
2023-04-10T17:59:32.314Z,8.55
2023-04-10T18:02:01.816Z,8.35
2023-04-10T18:04:31.185Z,8.22
2023-04-10T18:07:01.772Z,8.01
2023-04-10T18:09:31.017Z,8.09
2023-04-10T18:12:00.144Z,8.18
2023-04-10T18:14:29.176Z,8.11
2023-04-10T18:16:58.587Z,8.21
2023-04-10T18:19:29.777Z,8.27
2023-04-10T18:21:58.899Z,8.37
2023-04-10T18:24:29.393Z,8.46
2023-04-10T18:26:58.558Z,8.45
2023-04-10T18:29:30.730Z,8.53
2023-04-10T18:31:59.933Z,8.63
2023-04-10T18:34:29.093Z,8.66
2023-04-10T18:36:59.322Z,8.64
2023-04-10T18:39:33.010Z,8.67
2023-04-10T18:42:03.521Z,8.76
2023-04-10T18:44:34.226Z,8.74
2023-04-10T18:47:05.025Z,8.76
2023-04-10T18:49:34.609Z,8.79
2023-04-10T18:52:03.653Z,8.51
2023-04-10T18:54:35.449Z,8.69
2023-04-10T18:57:04.513Z,8.70
2023-04-10T18:59:33.567Z,8.71
2023-04-10T19:02:02.799Z,8.68
2023-04-10T19:04:32.235Z,8.70
2023-04-10T19:07:01.506Z,8.62
2023-04-10T19:09:32.531Z,8.48
2023-04-10T19:12:03.370Z,8.61
2023-04-10T19:14:32.585Z,8.65
2023-04-10T19:17:06.368Z,8.65
2023-04-10T19:19:37.264Z,8.61
2023-04-10T19:22:06.449Z,8.62
2023-04-10T19:24:35.674Z,8.65
2023-04-10T19:27:06.736Z,8.43
2023-04-10T19:29:35.888Z,8.57
2023-04-10T19:32:05.464Z,8.57
2023-04-10T19:34:34.607Z,8.52
2023-04-10T19:37:06.769Z,8.60
2023-04-10T19:39:35.829Z,8.58
2023-04-10T19:42:06.432Z,8.57
2023-04-10T19:44:37.767Z,8.41
2023-04-10T19:47:06.971Z,8.34
2023-04-10T19:49:36.328Z,8.33
2023-04-10T19:52:05.401Z,8.36
2023-04-10T19:54:34.467Z,8.31
2023-04-10T19:57:03.667Z,8.34
2023-04-10T19:59:36.651Z,8.24
2023-04-10T20:02:05.782Z,8.36
2023-04-10T20:04:35.074Z,8.36
2023-04-10T20:07:04.300Z,8.33
2023-04-10T20:09:33.394Z,8.32
2023-04-10T20:12:02.472Z,8.30
2023-04-10T20:14:31.566Z,8.25
2023-04-10T20:17:02.312Z,8.21
2023-04-10T20:19:31.481Z,8.22
2023-04-10T20:22:02.207Z,8.16
2023-04-10T20:24:31.694Z,8.17
2023-04-10T20:27:01.738Z,8.16
2023-04-10T20:29:30.979Z,8.16
2023-04-10T20:32:01.562Z,8.13
2023-04-10T20:34:30.850Z,8.10
2023-04-10T20:36:59.861Z,8.15
2023-04-10T20:39:29.105Z,8.24
2023-04-10T20:41:58.259Z,8.22
2023-04-10T20:44:27.525Z,8.18
2023-04-10T20:46:56.654Z,8.14
2023-04-10T20:49:27.869Z,8.15
2023-04-10T20:51:56.970Z,8.18
2023-04-10T20:54:27.093Z,8.12
2023-04-10T20:56:57.238Z,8.12
2023-04-10T20:59:26.229Z,8.04
2023-04-10T21:01:55.359Z,8.01
2023-04-10T21:04:24.431Z,8.05
2023-04-10T21:06:55.077Z,8.02
2023-04-10T21:09:24.222Z,8.07
2023-04-10T21:11:53.477Z,8.08
2023-04-10T21:14:22.521Z,8.05
2023-04-10T21:16:51.931Z,8.02
2023-04-10T21:19:20.938Z,8.01
2023-04-10T21:21:50.070Z,8.02
2023-04-10T21:24:20.650Z,7.97
2023-04-10T21:26:49.731Z,7.84
2023-04-10T21:29:18.835Z,7.93
2023-04-10T21:31:49.381Z,7.86
2023-04-10T21:34:19.754Z,7.85
2023-04-10T21:36:48.826Z,7.83
2023-04-10T21:39:17.830Z,7.86
2023-04-10T21:41:48.481Z,7.87
2023-04-10T21:44:17.520Z,7.86
2023-04-10T21:46:46.593Z,7.72
2023-04-10T21:49:15.733Z,7.75
2023-04-10T21:51:45.092Z,7.65
2023-04-10T21:54:14.076Z,7.71
2023-04-10T21:56:43.595Z,7.71
2023-04-10T21:59:14.112Z,7.68
2023-04-10T22:01:44.057Z,7.72
2023-04-10T22:04:13.354Z,7.69
2023-04-10T22:06:42.472Z,7.71
2023-04-10T22:09:11.608Z,7.71
2023-04-10T22:11:40.652Z,7.59
2023-04-10T22:14:17.058Z,7.75
2023-04-10T22:16:49.465Z,7.81
2023-04-10T22:19:18.542Z,7.77
2023-04-10T22:21:47.648Z,7.75
2023-04-10T22:24:16.619Z,7.81
2023-04-10T22:26:46.372Z,7.88
2023-04-10T22:29:15.978Z,7.87
2023-04-10T22:31:45.841Z,8.01
2023-04-10T22:34:16.516Z,7.71
2023-04-10T22:36:45.557Z,7.85
2023-04-10T22:39:15.350Z,7.77
2023-04-10T22:41:44.470Z,7.89
2023-04-10T22:44:13.784Z,7.78
2023-04-10T22:46:42.911Z,7.96
2023-04-10T22:49:12.043Z,7.70
2023-04-10T22:51:45.719Z,7.76
2023-04-10T22:54:16.148Z,7.92
2023-04-10T22:56:45.573Z,7.97
2023-04-10T22:59:14.696Z,8.07
2023-04-10T23:01:43.935Z,8.09
2023-04-10T23:04:12.952Z,8.02
2023-04-10T23:06:43.588Z,8.03
2023-04-10T23:09:12.713Z,8.01
2023-04-10T23:11:41.890Z,7.87
2023-04-10T23:14:10.991Z,7.86
2023-04-10T23:16:39.977Z,7.85
2023-04-10T23:19:09.044Z,7.72
2023-04-10T23:21:37.990Z,7.79
2023-04-10T23:24:08.921Z,7.75
2023-04-10T23:26:37.891Z,7.64
2023-04-10T23:29:06.976Z,7.69
2023-04-10T23:31:36.100Z,7.74
2023-04-10T23:34:05.261Z,7.70
2023-04-10T23:36:34.306Z,7.89
2023-04-10T23:39:03.421Z,7.83
2023-04-10T23:41:34.796Z,7.83
2023-04-10T23:44:03.907Z,7.75
2023-04-10T23:46:33.034Z,7.71
2023-04-10T23:49:02.122Z,7.73
2023-04-10T23:51:32.268Z,7.54
2023-04-10T23:54:01.456Z,7.49
2023-04-10T23:56:31.348Z,7.76
2023-04-10T23:59:01.828Z,7.68
